Aérodrome :
LOGIN :

S'inscrire | Disclaimer

   EN    FR    IT 

 










Légende :    VFR   VFR Marginal   IFR   IFR Intensif   IFR Très Intensif
Visi : 
Plafond : 
>= 8 km
>= 3000ft
5 à 8 km
1000 à 3000 ft
1500m à 5 km
500 à 1000 ft
800 à 1500m
200 à 500 ft
< 800m
< 200 ft
Symboles :   Orages  Brouillard  Fortes neiges  Fortes précipitations  Vent > 20 kt
SIGMETs :   Divers  Orages  Givrage  Turbulence  Onde Orograph.  Cendres Volcan.






- Altitude de l'aérodrome : 16 ft
- Code IATA : EAS


LESO - San Sebastian Fuenterrabia

DERNIER METAR :
  • 171449Z 24009KT 200V280 9999 -RA FEW024TCU SCT035 BKN060 11/09 Q1007 RESHRA

METARs EXPIRÉS :
  • 171430Z 23010KT 200V260 8000 3000S SHRA SCT024TCU SCT035 BKN060 11/09 Q1008
  • 171400Z 23008KT 200V280 9999 4000N -SHRA SCT028 FEW036TCU BKN048 10/09 Q1008
  • 171330Z 24007KT 200V280 9999 4000S DZ VCSH SCT028TCU BKN048 10/09 Q1008
  • 171300Z 24007KT 210V280 9999 SCT030 BKN050 10/09 Q1008 RERA REDZ
  • 171230Z 24007KT 200V270 9999 -RADZ FEW024 SCT031 BKN047 10/09 Q1008
  • 171200Z 22007KT 190V260 9999 FEW020 SCT025 BKN045 11/08 Q1008

TAF TAF LESO
Valide du 17 à 12h jusqu'au 18 à 12h UTC


171100Z 1712/1812 23009KT 9999 SCT020 BKN040 TX11/1716Z TN05/1807Z
TEMPO 1712/1724 3000 RA SHRA BKN025TCU
PROB40
TEMPO 1716/1718 25015G30KT
BECMG 1716/1720 35010KT
BECMG 1802/1804 VRB05KT



MET'MAP, la Météo Aéronautique d'un coup d'oeil ! - Copyright ORBIFLY Décembre 2007 - Disclaimer

ORBIFLY MET'MAP TEAM :

Programmation & Développement : Alexandra Zaïnal
Conception & Développement : Baudouin d'Aumeries
Co-Programmation & Développement : Marc-Olivier Méhu
Soutien technique & logistique : Manuel Goepfert

Contact : metmap@orbifly.com




SOURCES & CREDITS :

   NOAA